sensor_id;sensor_type;location;lat;lon;timestamp;P1;durP1;ratioP1;P2;durP2;ratioP2
31990;SDS011;18508;49.386;8.370;2023-01-10T00:00:11;1.80;;;1.00;;
31990;SDS011;18508;49.386;8.370;2023-01-10T00:02:40;1.80;;;0.95;;
31990;SDS011;18508;49.386;8.370;2023-01-10T00:05:08;1.42;;;0.73;;
31990;SDS011;18508;49.386;8.370;2023-01-10T00:07:36;3.63;;;0.90;;
31990;SDS011;18508;49.386;8.370;2023-01-10T00:10:06;1.50;;;0.80;;
31990;SDS011;18508;49.386;8.370;2023-01-10T00:12:35;2.35;;;1.00;;
31990;SDS011;18508;49.386;8.370;2023-01-10T00:15:20;1.20;;;0.80;;
31990;SDS011;18508;49.386;8.370;2023-01-10T00:17:48;2.05;;;0.80;;
31990;SDS011;18508;49.386;8.370;2023-01-10T00:20:17;2.60;;;0.85;;
31990;SDS011;18508;49.386;8.370;2023-01-10T00:22:45;1.88;;;0.80;;
31990;SDS011;18508;49.386;8.370;2023-01-10T00:25:15;1.75;;;0.70;;
31990;SDS011;18508;49.386;8.370;2023-01-10T00:27:45;1.25;;;0.68;;
31990;SDS011;18508;49.386;8.370;2023-01-10T00:30:15;1.23;;;0.57;;
31990;SDS011;18508;49.386;8.370;2023-01-10T00:32:44;2.80;;;0.80;;
31990;SDS011;18508;49.386;8.370;2023-01-10T00:35:12;1.77;;;0.60;;
31990;SDS011;18508;49.386;8.370;2023-01-10T00:37:40;1.85;;;0.80;;
31990;SDS011;18508;49.386;8.370;2023-01-10T00:40:08;1.88;;;0.63;;
31990;SDS011;18508;49.386;8.370;2023-01-10T00:42:39;1.35;;;0.60;;
31990;SDS011;18508;49.386;8.370;2023-01-10T00:45:25;3.35;;;0.70;;
31990;SDS011;18508;49.386;8.370;2023-01-10T00:47:53;1.23;;;0.47;;
31990;SDS011;18508;49.386;8.370;2023-01-10T00:50:21;1.08;;;0.38;;
31990;SDS011;18508;49.386;8.370;2023-01-10T00:52:49;1.17;;;0.40;;
31990;SDS011;18508;49.386;8.370;2023-01-10T00:55:17;0.95;;;0.45;;
31990;SDS011;18508;49.386;8.370;2023-01-10T00:57:47;0.43;;;0.30;;
31990;SDS011;18508;49.386;8.370;2023-01-10T01:00:15;0.57;;;0.30;;
31990;SDS011;18508;49.386;8.370;2023-01-10T01:02:43;1.48;;;0.60;;
31990;SDS011;18508;49.386;8.370;2023-01-10T01:05:12;0.88;;;0.43;;
31990;SDS011;18508;49.386;8.370;2023-01-10T01:07:40;1.02;;;0.38;;
31990;SDS011;18508;49.386;8.370;2023-01-10T01:10:09;0.43;;;0.20;;
31990;SDS011;18508;49.386;8.370;2023-01-10T01:13:05;0.88;;;0.40;;
31990;SDS011;18508;49.386;8.370;2023-01-10T01:15:35;1.25;;;0.45;;
31990;SDS011;18508;49.386;8.370;2023-01-10T01:18:03;2.65;;;0.60;;
31990;SDS011;18508;49.386;8.370;2023-01-10T01:20:32;0.88;;;0.68;;
31990;SDS011;18508;49.386;8.370;2023-01-10T01:23:00;1.70;;;0.40;;
31990;SDS011;18508;49.386;8.370;2023-01-10T01:25:28;0.47;;;0.30;;
31990;SDS011;18508;49.386;8.370;2023-01-10T01:27:57;1.30;;;0.52;;
31990;SDS011;18508;49.386;8.370;2023-01-10T01:30:26;3.30;;;0.50;;
31990;SDS011;18508;49.386;8.370;2023-01-10T01:32:55;2.70;;;0.40;;
31990;SDS011;18508;49.386;8.370;2023-01-10T01:35:23;0.75;;;0.30;;
31990;SDS011;18508;49.386;8.370;2023-01-10T01:37:52;0.85;;;0.50;;
31990;SDS011;18508;49.386;8.370;2023-01-10T01:40:21;1.23;;;0.60;;
31990;SDS011;18508;49.386;8.370;2023-01-10T01:42:49;1.30;;;0.50;;
31990;SDS011;18508;49.386;8.370;2023-01-10T01:45:36;1.73;;;0.80;;
31990;SDS011;18508;49.386;8.370;2023-01-10T01:48:18;1.08;;;0.50;;
31990;SDS011;18508;49.386;8.370;2023-01-10T01:50:58;1.13;;;0.40;;
31990;SDS011;18508;49.386;8.370;2023-01-10T01:53:31;1.52;;;0.50;;
31990;SDS011;18508;49.386;8.370;2023-01-10T01:56:06;1.63;;;0.60;;
31990;SDS011;18508;49.386;8.370;2023-01-10T01:58:39;2.30;;;0.60;;
31990;SDS011;18508;49.386;8.370;2023-01-10T02:01:12;2.00;;;0.90;;
31990;SDS011;18508;49.386;8.370;2023-01-10T02:03:44;1.75;;;0.60;;
31990;SDS011;18508;49.386;8.370;2023-01-10T02:06:16;0.85;;;0.50;;
31990;SDS011;18508;49.386;8.370;2023-01-10T02:08:48;1.25;;;0.60;;
31990;SDS011;18508;49.386;8.370;2023-01-10T02:11:21;3.15;;;0.70;;
31990;SDS011;18508;49.386;8.370;2023-01-10T02:13:49;1.83;;;0.70;;
31990;SDS011;18508;49.386;8.370;2023-01-10T02:16:21;3.90;;;0.65;;
31990;SDS011;18508;49.386;8.370;2023-01-10T02:18:49;1.88;;;0.70;;
31990;SDS011;18508;49.386;8.370;2023-01-10T02:21:26;2.88;;;0.70;;
31990;SDS011;18508;49.386;8.370;2023-01-10T02:27:17;3.15;;;0.70;;
31990;SDS011;18508;49.386;8.370;2023-01-10T02:32:58;4.97;;;0.82;;
31990;SDS011;18508;49.386;8.370;2023-01-10T02:35:45;2.80;;;0.80;;
31990;SDS011;18508;49.386;8.370;2023-01-10T02:38:27;2.92;;;0.70;;
31990;SDS011;18508;49.386;8.370;2023-01-10T02:41:08;3.42;;;0.90;;
31990;SDS011;18508;49.386;8.370;2023-01-10T02:43:46;4.57;;;1.02;;
31990;SDS011;18508;49.386;8.370;2023-01-10T02:46:19;1.92;;;0.73;;
31990;SDS011;18508;49.386;8.370;2023-01-10T02:48:54;4.78;;;1.00;;
31990;SDS011;18508;49.386;8.370;2023-01-10T02:51:23;4.47;;;1.05;;
31990;SDS011;18508;49.386;8.370;2023-01-10T02:53:54;3.85;;;1.00;;
31990;SDS011;18508;49.386;8.370;2023-01-10T02:56:35;1.90;;;0.90;;
31990;SDS011;18508;49.386;8.370;2023-01-10T03:02:39;5.97;;;1.10;;
31990;SDS011;18508;49.386;8.370;2023-01-10T03:05:45;5.65;;;1.08;;
31990;SDS011;18508;49.386;8.370;2023-01-10T03:08:23;5.43;;;1.20;;
31990;SDS011;18508;49.386;8.370;2023-01-10T03:10:57;3.00;;;1.20;;
31990;SDS011;18508;49.386;8.370;2023-01-10T03:13:28;2.65;;;1.10;;
31990;SDS011;18508;49.386;8.370;2023-01-10T03:16:01;3.33;;;1.40;;
31990;SDS011;18508;49.386;8.370;2023-01-10T03:18:35;6.32;;;1.10;;
31990;SDS011;18508;49.386;8.370;2023-01-10T03:21:13;3.03;;;1.20;;
31990;SDS011;18508;49.386;8.370;2023-01-10T03:23:43;3.25;;;1.23;;
31990;SDS011;18508;49.386;8.370;2023-01-10T03:26:13;3.85;;;1.13;;
31990;SDS011;18508;49.386;8.370;2023-01-10T03:28:46;4.45;;;1.00;;
31990;SDS011;18508;49.386;8.370;2023-01-10T03:31:17;3.00;;;1.27;;
31990;SDS011;18508;49.386;8.370;2023-01-10T03:36:22;4.38;;;1.20;;
31990;SDS011;18508;49.386;8.370;2023-01-10T03:38:58;2.72;;;1.10;;
31990;SDS011;18508;49.386;8.370;2023-01-10T03:41:34;5.85;;;1.40;;
31990;SDS011;18508;49.386;8.370;2023-01-10T03:44:10;3.70;;;1.27;;
31990;SDS011;18508;49.386;8.370;2023-01-10T03:47:02;3.78;;;1.45;;
31990;SDS011;18508;49.386;8.370;2023-01-10T03:49:33;3.08;;;1.38;;
31990;SDS011;18508;49.386;8.370;2023-01-10T03:52:06;3.17;;;1.13;;
31990;SDS011;18508;49.386;8.370;2023-01-10T03:54:37;3.97;;;1.35;;
31990;SDS011;18508;49.386;8.370;2023-01-10T03:57:10;4.25;;;1.40;;
31990;SDS011;18508;49.386;8.370;2023-01-10T03:59:46;4.95;;;1.23;;
31990;SDS011;18508;49.386;8.370;2023-01-10T04:02:16;8.90;;;1.95;;
31990;SDS011;18508;49.386;8.370;2023-01-10T04:04:45;4.88;;;1.17;;
31990;SDS011;18508;49.386;8.370;2023-01-10T04:07:18;4.45;;;1.10;;
31990;SDS011;18508;49.386;8.370;2023-01-10T04:09:46;5.00;;;1.23;;
31990;SDS011;18508;49.386;8.370;2023-01-10T04:12:18;3.67;;;1.25;;
31990;SDS011;18508;49.386;8.370;2023-01-10T04:14:46;4.22;;;1.20;;
31990;SDS011;18508;49.386;8.370;2023-01-10T04:17:14;3.45;;;1.73;;
31990;SDS011;18508;49.386;8.370;2023-01-10T04:19:43;7.95;;;2.00;;
31990;SDS011;18508;49.386;8.370;2023-01-10T04:22:12;4.78;;;1.85;;
31990;SDS011;18508;49.386;8.370;2023-01-10T04:24:41;6.43;;;1.80;;
31990;SDS011;18508;49.386;8.370;2023-01-10T04:27:12;4.70;;;1.67;;
31990;SDS011;18508;49.386;8.370;2023-01-10T04:29:40;5.97;;;1.92;;
31990;SDS011;18508;49.386;8.370;2023-01-10T04:32:08;6.20;;;1.80;;
31990;SDS011;18508;49.386;8.370;2023-01-10T04:34:36;5.70;;;1.85;;
31990;SDS011;18508;49.386;8.370;2023-01-10T04:37:04;6.25;;;1.80;;
31990;SDS011;18508;49.386;8.370;2023-01-10T04:39:33;5.68;;;2.08;;
31990;SDS011;18508;49.386;8.370;2023-01-10T04:42:03;5.72;;;2.00;;
31990;SDS011;18508;49.386;8.370;2023-01-10T04:44:31;8.07;;;1.98;;
31990;SDS011;18508;49.386;8.370;2023-01-10T04:46:59;5.63;;;2.15;;
31990;SDS011;18508;49.386;8.370;2023-01-10T04:49:27;4.70;;;1.85;;
31990;SDS011;18508;49.386;8.370;2023-01-10T04:51:59;6.25;;;2.08;;
31990;SDS011;18508;49.386;8.370;2023-01-10T04:54:27;6.30;;;1.98;;
31990;SDS011;18508;49.386;8.370;2023-01-10T04:56:56;8.00;;;1.92;;
31990;SDS011;18508;49.386;8.370;2023-01-10T04:59:25;7.68;;;1.70;;
31990;SDS011;18508;49.386;8.370;2023-01-10T05:01:53;7.30;;;2.35;;
31990;SDS011;18508;49.386;8.370;2023-01-10T05:04:24;8.23;;;2.17;;
31990;SDS011;18508;49.386;8.370;2023-01-10T05:06:52;6.00;;;2.25;;
31990;SDS011;18508;49.386;8.370;2023-01-10T05:09:20;9.90;;;2.63;;
31990;SDS011;18508;49.386;8.370;2023-01-10T05:11:48;8.60;;;2.00;;
31990;SDS011;18508;49.386;8.370;2023-01-10T05:14:17;8.82;;;2.50;;
31990;SDS011;18508;49.386;8.370;2023-01-10T05:16:46;5.20;;;1.98;;
31990;SDS011;18508;49.386;8.370;2023-01-10T05:19:14;8.27;;;2.53;;
31990;SDS011;18508;49.386;8.370;2023-01-10T05:21:42;5.40;;;2.20;;
31990;SDS011;18508;49.386;8.370;2023-01-10T05:24:10;8.45;;;2.05;;
31990;SDS011;18508;49.386;8.370;2023-01-10T05:26:38;6.07;;;2.80;;
31990;SDS011;18508;49.386;8.370;2023-01-10T05:29:08;8.55;;;2.42;;
31990;SDS011;18508;49.386;8.370;2023-01-10T05:31:37;12.63;;;3.45;;
31990;SDS011;18508;49.386;8.370;2023-01-10T05:34:08;4.93;;;1.80;;
31990;SDS011;18508;49.386;8.370;2023-01-10T05:36:39;11.18;;;2.30;;
31990;SDS011;18508;49.386;8.370;2023-01-10T05:39:07;11.18;;;2.45;;
31990;SDS011;18508;49.386;8.370;2023-01-10T05:41:35;8.75;;;1.95;;
31990;SDS011;18508;49.386;8.370;2023-01-10T05:44:03;7.15;;;2.30;;
31990;SDS011;18508;49.386;8.370;2023-01-10T05:46:31;8.35;;;2.00;;
31990;SDS011;18508;49.386;8.370;2023-01-10T05:48:59;5.55;;;1.67;;
31990;SDS011;18508;49.386;8.370;2023-01-10T05:51:30;8.93;;;2.70;;
31990;SDS011;18508;49.386;8.370;2023-01-10T05:53:59;8.73;;;2.75;;
31990;SDS011;18508;49.386;8.370;2023-01-10T05:56:27;6.78;;;2.15;;
31990;SDS011;18508;49.386;8.370;2023-01-10T05:58:55;7.18;;;1.83;;
31990;SDS011;18508;49.386;8.370;2023-01-10T06:01:45;6.80;;;2.42;;
31990;SDS011;18508;49.386;8.370;2023-01-10T06:04:14;12.77;;;2.13;;
31990;SDS011;18508;49.386;8.370;2023-01-10T06:06:43;8.35;;;2.30;;
31990;SDS011;18508;49.386;8.370;2023-01-10T06:09:11;8.38;;;3.25;;
31990;SDS011;18508;49.386;8.370;2023-01-10T06:11:45;6.60;;;2.42;;
31990;SDS011;18508;49.386;8.370;2023-01-10T06:14:13;10.25;;;2.28;;
31990;SDS011;18508;49.386;8.370;2023-01-10T06:16:44;13.02;;;2.55;;
31990;SDS011;18508;49.386;8.370;2023-01-10T06:19:12;9.75;;;2.80;;
31990;SDS011;18508;49.386;8.370;2023-01-10T06:21:41;7.50;;;2.25;;
31990;SDS011;18508;49.386;8.370;2023-01-10T06:24:10;7.90;;;2.50;;
31990;SDS011;18508;49.386;8.370;2023-01-10T06:26:39;8.57;;;2.45;;
31990;SDS011;18508;49.386;8.370;2023-01-10T06:29:08;9.43;;;2.72;;
31990;SDS011;18508;49.386;8.370;2023-01-10T06:31:37;7.68;;;2.08;;
31990;SDS011;18508;49.386;8.370;2023-01-10T06:34:05;6.07;;;2.20;;
31990;SDS011;18508;49.386;8.370;2023-01-10T06:36:34;8.98;;;2.28;;
31990;SDS011;18508;49.386;8.370;2023-01-10T06:39:02;10.07;;;3.05;;
31990;SDS011;18508;49.386;8.370;2023-01-10T06:41:32;8.52;;;2.20;;
31990;SDS011;18508;49.386;8.370;2023-01-10T06:44:00;9.18;;;2.25;;
31990;SDS011;18508;49.386;8.370;2023-01-10T06:46:29;13.30;;;2.53;;
31990;SDS011;18508;49.386;8.370;2023-01-10T06:48:57;5.35;;;1.60;;
31990;SDS011;18508;49.386;8.370;2023-01-10T06:51:25;9.90;;;1.80;;
31990;SDS011;18508;49.386;8.370;2023-01-10T06:53:54;7.00;;;2.00;;
31990;SDS011;18508;49.386;8.370;2023-01-10T06:56:22;9.00;;;2.10;;
31990;SDS011;18508;49.386;8.370;2023-01-10T06:58:52;7.47;;;1.80;;
31990;SDS011;18508;49.386;8.370;2023-01-10T07:01:21;9.85;;;2.42;;
31990;SDS011;18508;49.386;8.370;2023-01-10T07:03:49;7.85;;;2.60;;
31990;SDS011;18508;49.386;8.370;2023-01-10T07:06:18;11.57;;;2.30;;
31990;SDS011;18508;49.386;8.370;2023-01-10T07:08:46;11.48;;;3.45;;
31990;SDS011;18508;49.386;8.370;2023-01-10T07:11:15;11.48;;;2.53;;
31990;SDS011;18508;49.386;8.370;2023-01-10T07:13:44;6.43;;;2.40;;
31990;SDS011;18508;49.386;8.370;2023-01-10T07:16:14;12.32;;;2.67;;
31990;SDS011;18508;49.386;8.370;2023-01-10T07:18:43;7.00;;;1.77;;
31990;SDS011;18508;49.386;8.370;2023-01-10T07:21:11;8.40;;;2.63;;
31990;SDS011;18508;49.386;8.370;2023-01-10T07:23:40;8.77;;;2.45;;
31990;SDS011;18508;49.386;8.370;2023-01-10T07:26:09;12.43;;;2.78;;
31990;SDS011;18508;49.386;8.370;2023-01-10T07:28:43;7.35;;;2.20;;
31990;SDS011;18508;49.386;8.370;2023-01-10T07:31:11;7.95;;;2.15;;
31990;SDS011;18508;49.386;8.370;2023-01-10T07:33:41;11.95;;;3.08;;
31990;SDS011;18508;49.386;8.370;2023-01-10T07:36:09;4.25;;;1.92;;
31990;SDS011;18508;49.386;8.370;2023-01-10T07:38:38;11.93;;;2.60;;
31990;SDS011;18508;49.386;8.370;2023-01-10T07:41:06;7.30;;;2.45;;
31990;SDS011;18508;49.386;8.370;2023-01-10T07:43:34;6.55;;;2.00;;
31990;SDS011;18508;49.386;8.370;2023-01-10T07:46:04;9.05;;;2.70;;
31990;SDS011;18508;49.386;8.370;2023-01-10T07:48:35;13.27;;;2.80;;
31990;SDS011;18508;49.386;8.370;2023-01-10T07:51:04;10.77;;;2.63;;
31990;SDS011;18508;49.386;8.370;2023-01-10T07:53:33;11.23;;;2.72;;
31990;SDS011;18508;49.386;8.370;2023-01-10T07:56:01;10.75;;;3.00;;
31990;SDS011;18508;49.386;8.370;2023-01-10T07:58:30;13.98;;;3.00;;
31990;SDS011;18508;49.386;8.370;2023-01-10T08:00:59;11.98;;;3.00;;
31990;SDS011;18508;49.386;8.370;2023-01-10T08:03:28;6.43;;;2.92;;
31990;SDS011;18508;49.386;8.370;2023-01-10T08:05:58;10.43;;;2.60;;
31990;SDS011;18508;49.386;8.370;2023-01-10T08:08:29;6.53;;;2.55;;
31990;SDS011;18508;49.386;8.370;2023-01-10T08:10:57;12.10;;;2.88;;
31990;SDS011;18508;49.386;8.370;2023-01-10T08:13:28;10.13;;;3.90;;
31990;SDS011;18508;49.386;8.370;2023-01-10T08:15:57;14.93;;;4.03;;
31990;SDS011;18508;49.386;8.370;2023-01-10T08:18:26;12.10;;;3.80;;
31990;SDS011;18508;49.386;8.370;2023-01-10T08:20:54;14.18;;;2.92;;
31990;SDS011;18508;49.386;8.370;2023-01-10T08:23:23;7.22;;;2.88;;
31990;SDS011;18508;49.386;8.370;2023-01-10T08:25:53;9.10;;;2.47;;
31990;SDS011;18508;49.386;8.370;2023-01-10T08:28:21;7.65;;;2.15;;
31990;SDS011;18508;49.386;8.370;2023-01-10T08:30:50;13.30;;;3.22;;
31990;SDS011;18508;49.386;8.370;2023-01-10T08:33:22;6.80;;;2.40;;
31990;SDS011;18508;49.386;8.370;2023-01-10T08:35:50;9.00;;;2.47;;
31990;SDS011;18508;49.386;8.370;2023-01-10T08:38:18;8.82;;;2.70;;
31990;SDS011;18508;49.386;8.370;2023-01-10T08:40:46;10.77;;;2.30;;
31990;SDS011;18508;49.386;8.370;2023-01-10T08:43:16;11.85;;;2.97;;
31990;SDS011;18508;49.386;8.370;2023-01-10T08:45:44;9.68;;;2.38;;
31990;SDS011;18508;49.386;8.370;2023-01-10T08:48:12;6.07;;;2.55;;
31990;SDS011;18508;49.386;8.370;2023-01-10T08:50:40;12.82;;;2.50;;
31990;SDS011;18508;49.386;8.370;2023-01-10T08:53:09;11.70;;;2.33;;
31990;SDS011;18508;49.386;8.370;2023-01-10T08:55:39;7.93;;;2.55;;
31990;SDS011;18508;49.386;8.370;2023-01-10T08:58:07;9.32;;;2.63;;
31990;SDS011;18508;49.386;8.370;2023-01-10T09:00:37;9.80;;;2.60;;
31990;SDS011;18508;49.386;8.370;2023-01-10T09:03:05;7.75;;;1.90;;
31990;SDS011;18508;49.386;8.370;2023-01-10T09:05:35;9.65;;;1.88;;
31990;SDS011;18508;49.386;8.370;2023-01-10T09:08:03;11.38;;;2.50;;
31990;SDS011;18508;49.386;8.370;2023-01-10T09:10:32;9.90;;;2.22;;
31990;SDS011;18508;49.386;8.370;2023-01-10T09:13:00;10.25;;;2.38;;
31990;SDS011;18508;49.386;8.370;2023-01-10T09:15:31;14.45;;;2.30;;
31990;SDS011;18508;49.386;8.370;2023-01-10T09:18:03;7.10;;;2.28;;
31990;SDS011;18508;49.386;8.370;2023-01-10T09:20:33;9.40;;;2.20;;
31990;SDS011;18508;49.386;8.370;2023-01-10T09:23:06;12.38;;;2.30;;
31990;SDS011;18508;49.386;8.370;2023-01-10T09:25:35;12.02;;;2.53;;
31990;SDS011;18508;49.386;8.370;2023-01-10T09:28:04;12.18;;;2.60;;
31990;SDS011;18508;49.386;8.370;2023-01-10T09:30:33;10.43;;;2.13;;
31990;SDS011;18508;49.386;8.370;2023-01-10T09:33:02;6.97;;;1.90;;
31990;SDS011;18508;49.386;8.370;2023-01-10T09:35:33;10.50;;;1.90;;
31990;SDS011;18508;49.386;8.370;2023-01-10T09:38:03;6.00;;;2.00;;
31990;SDS011;18508;49.386;8.370;2023-01-10T09:40:38;10.20;;;1.95;;
31990;SDS011;18508;49.386;8.370;2023-01-10T09:43:16;7.35;;;2.08;;
31990;SDS011;18508;49.386;8.370;2023-01-10T09:45:52;12.25;;;2.70;;
31990;SDS011;18508;49.386;8.370;2023-01-10T09:48:32;9.68;;;1.95;;
31990;SDS011;18508;49.386;8.370;2023-01-10T09:51:24;7.97;;;2.17;;
31990;SDS011;18508;49.386;8.370;2023-01-10T09:54:02;8.95;;;2.25;;
31990;SDS011;18508;49.386;8.370;2023-01-10T09:56:38;6.85;;;2.33;;
31990;SDS011;18508;49.386;8.370;2023-01-10T09:59:09;8.98;;;2.03;;
31990;SDS011;18508;49.386;8.370;2023-01-10T10:01:41;9.80;;;2.08;;
31990;SDS011;18508;49.386;8.370;2023-01-10T10:04:17;9.25;;;2.25;;
31990;SDS011;18508;49.386;8.370;2023-01-10T10:06:50;10.32;;;3.10;;
31990;SDS011;18508;49.386;8.370;2023-01-10T10:09:21;6.00;;;1.85;;
31990;SDS011;18508;49.386;8.370;2023-01-10T10:11:54;10.00;;;1.90;;
31990;SDS011;18508;49.386;8.370;2023-01-10T10:14:43;6.30;;;1.90;;
31990;SDS011;18508;49.386;8.370;2023-01-10T10:17:24;8.50;;;2.35;;
31990;SDS011;18508;49.386;8.370;2023-01-10T10:20:04;12.75;;;2.13;;
31990;SDS011;18508;49.386;8.370;2023-01-10T10:22:45;8.50;;;2.30;;
31990;SDS011;18508;49.386;8.370;2023-01-10T10:25:24;10.02;;;1.90;;
31990;SDS011;18508;49.386;8.370;2023-01-10T10:28:11;7.03;;;2.15;;
31990;SDS011;18508;49.386;8.370;2023-01-10T10:30:59;14.90;;;2.55;;
31990;SDS011;18508;49.386;8.370;2023-01-10T10:33:39;8.27;;;2.22;;
31990;SDS011;18508;49.386;8.370;2023-01-10T10:36:19;9.93;;;2.58;;
31990;SDS011;18508;49.386;8.370;2023-01-10T10:38:50;12.82;;;2.60;;
31990;SDS011;18508;49.386;8.370;2023-01-10T10:41:24;11.30;;;2.65;;
31990;SDS011;18508;49.386;8.370;2023-01-10T10:43:58;11.60;;;2.53;;
31990;SDS011;18508;49.386;8.370;2023-01-10T10:46:30;8.43;;;2.03;;
31990;SDS011;18508;49.386;8.370;2023-01-10T10:49:02;9.85;;;2.42;;
31990;SDS011;18508;49.386;8.370;2023-01-10T10:51:46;10.05;;;2.05;;
31990;SDS011;18508;49.386;8.370;2023-01-10T10:54:17;7.25;;;2.40;;
31990;SDS011;18508;49.386;8.370;2023-01-10T10:56:46;15.60;;;2.72;;
31990;SDS011;18508;49.386;8.370;2023-01-10T10:59:14;11.32;;;2.63;;
31990;SDS011;18508;49.386;8.370;2023-01-10T11:01:45;9.95;;;2.40;;
31990;SDS011;18508;49.386;8.370;2023-01-10T11:04:15;15.55;;;2.50;;
31990;SDS011;18508;49.386;8.370;2023-01-10T11:06:49;10.38;;;2.92;;
31990;SDS011;18508;49.386;8.370;2023-01-10T11:09:18;10.27;;;2.90;;
31990;SDS011;18508;49.386;8.370;2023-01-10T11:11:52;10.73;;;2.78;;
31990;SDS011;18508;49.386;8.370;2023-01-10T11:17:18;12.95;;;2.65;;
31990;SDS011;18508;49.386;8.370;2023-01-10T11:19:55;8.75;;;2.50;;
31990;SDS011;18508;49.386;8.370;2023-01-10T11:22:26;11.88;;;3.13;;
31990;SDS011;18508;49.386;8.370;2023-01-10T11:24:57;13.05;;;2.78;;
31990;SDS011;18508;49.386;8.370;2023-01-10T11:27:27;10.32;;;2.92;;
31990;SDS011;18508;49.386;8.370;2023-01-10T11:29:58;12.60;;;2.42;;
31990;SDS011;18508;49.386;8.370;2023-01-10T11:32:30;13.40;;;2.42;;
31990;SDS011;18508;49.386;8.370;2023-01-10T11:35:01;12.57;;;2.17;;
31990;SDS011;18508;49.386;8.370;2023-01-10T11:37:36;11.85;;;2.55;;
31990;SDS011;18508;49.386;8.370;2023-01-10T11:40:12;14.18;;;2.17;;
31990;SDS011;18508;49.386;8.370;2023-01-10T11:42:49;13.73;;;2.72;;
31990;SDS011;18508;49.386;8.370;2023-01-10T11:45:21;8.75;;;2.38;;
31990;SDS011;18508;49.386;8.370;2023-01-10T11:47:52;11.37;;;2.47;;
31990;SDS011;18508;49.386;8.370;2023-01-10T11:50:23;13.02;;;2.58;;
31990;SDS011;18508;49.386;8.370;2023-01-10T11:52:55;10.95;;;2.45;;
31990;SDS011;18508;49.386;8.370;2023-01-10T11:55:24;12.23;;;3.15;;
31990;SDS011;18508;49.386;8.370;2023-01-10T11:58:04;5.78;;;2.03;;
31990;SDS011;18508;49.386;8.370;2023-01-10T12:00:36;6.20;;;2.15;;
31990;SDS011;18508;49.386;8.370;2023-01-10T12:05:53;16.67;;;3.50;;
31990;SDS011;18508;49.386;8.370;2023-01-10T12:08:26;11.05;;;2.65;;
31990;SDS011;18508;49.386;8.370;2023-01-10T12:11:00;13.18;;;3.22;;
31990;SDS011;18508;49.386;8.370;2023-01-10T12:13:41;12.90;;;2.90;;
31990;SDS011;18508;49.386;8.370;2023-01-10T12:16:15;11.50;;;3.20;;
31990;SDS011;18508;49.386;8.370;2023-01-10T12:18:45;10.35;;;2.53;;
31990;SDS011;18508;49.386;8.370;2023-01-10T12:21:15;9.68;;;2.55;;
31990;SDS011;18508;49.386;8.370;2023-01-10T12:23:50;8.63;;;2.75;;
31990;SDS011;18508;49.386;8.370;2023-01-10T12:26:20;15.15;;;2.58;;
31990;SDS011;18508;49.386;8.370;2023-01-10T12:28:50;14.70;;;3.58;;
31990;SDS011;18508;49.386;8.370;2023-01-10T12:31:24;13.57;;;2.83;;
31990;SDS011;18508;49.386;8.370;2023-01-10T12:33:54;12.88;;;2.53;;
31990;SDS011;18508;49.386;8.370;2023-01-10T12:36:31;10.88;;;2.65;;
31990;SDS011;18508;49.386;8.370;2023-01-10T12:39:07;8.45;;;2.15;;
31990;SDS011;18508;49.386;8.370;2023-01-10T12:41:45;11.38;;;3.15;;
31990;SDS011;18508;49.386;8.370;2023-01-10T12:44:39;9.00;;;2.90;;
31990;SDS011;18508;49.386;8.370;2023-01-10T12:47:12;13.90;;;2.78;;
31990;SDS011;18508;49.386;8.370;2023-01-10T12:49:48;9.85;;;2.22;;
31990;SDS011;18508;49.386;8.370;2023-01-10T12:52:25;12.60;;;3.03;;
31990;SDS011;18508;49.386;8.370;2023-01-10T12:54:59;13.40;;;2.50;;
31990;SDS011;18508;49.386;8.370;2023-01-10T12:57:30;9.45;;;2.30;;
31990;SDS011;18508;49.386;8.370;2023-01-10T13:00:03;9.85;;;2.55;;
31990;SDS011;18508;49.386;8.370;2023-01-10T13:02:36;13.45;;;2.33;;
31990;SDS011;18508;49.386;8.370;2023-01-10T13:05:13;14.65;;;2.20;;
31990;SDS011;18508;49.386;8.370;2023-01-10T13:07:45;9.52;;;1.90;;
31990;SDS011;18508;49.386;8.370;2023-01-10T13:10:18;6.90;;;2.22;;
31990;SDS011;18508;49.386;8.370;2023-01-10T13:12:51;9.60;;;2.25;;
31990;SDS011;18508;49.386;8.370;2023-01-10T13:15:25;8.68;;;1.90;;
31990;SDS011;18508;49.386;8.370;2023-01-10T13:17:58;12.52;;;1.70;;
31990;SDS011;18508;49.386;8.370;2023-01-10T13:20:36;5.53;;;1.75;;
31990;SDS011;18508;49.386;8.370;2023-01-10T13:23:19;9.88;;;2.05;;
31990;SDS011;18508;49.386;8.370;2023-01-10T13:28:23;11.55;;;2.50;;
31990;SDS011;18508;49.386;8.370;2023-01-10T13:30:54;9.70;;;2.00;;
31990;SDS011;18508;49.386;8.370;2023-01-10T13:33:25;5.93;;;1.77;;
31990;SDS011;18508;49.386;8.370;2023-01-10T13:35:55;8.30;;;2.40;;
31990;SDS011;18508;49.386;8.370;2023-01-10T13:38:34;8.50;;;2.30;;
31990;SDS011;18508;49.386;8.370;2023-01-10T13:41:13;10.93;;;2.20;;
31990;SDS011;18508;49.386;8.370;2023-01-10T13:44:01;9.90;;;1.98;;
31990;SDS011;18508;49.386;8.370;2023-01-10T13:52:26;9.05;;;1.80;;
31990;SDS011;18508;49.386;8.370;2023-01-10T13:54:57;10.88;;;1.75;;
31990;SDS011;18508;49.386;8.370;2023-01-10T13:57:49;6.72;;;2.00;;
31990;SDS011;18508;49.386;8.370;2023-01-10T14:00:26;9.38;;;2.03;;
31990;SDS011;18508;49.386;8.370;2023-01-10T14:03:45;6.35;;;2.10;;
31990;SDS011;18508;49.386;8.370;2023-01-10T14:06:30;7.13;;;1.88;;
31990;SDS011;18508;49.386;8.370;2023-01-10T14:11:58;7.43;;;1.80;;
31990;SDS011;18508;49.386;8.370;2023-01-10T14:14:30;6.90;;;1.70;;
31990;SDS011;18508;49.386;8.370;2023-01-10T14:17:10;6.70;;;1.83;;
31990;SDS011;18508;49.386;8.370;2023-01-10T14:19:47;6.72;;;1.70;;
31990;SDS011;18508;49.386;8.370;2023-01-10T14:22:26;9.57;;;1.85;;
31990;SDS011;18508;49.386;8.370;2023-01-10T14:24:57;5.90;;;1.50;;
31990;SDS011;18508;49.386;8.370;2023-01-10T14:27:29;7.70;;;1.98;;
31990;SDS011;18508;49.386;8.370;2023-01-10T14:30:06;10.50;;;1.95;;
31990;SDS011;18508;49.386;8.370;2023-01-10T14:32:42;5.65;;;2.00;;
31990;SDS011;18508;49.386;8.370;2023-01-10T14:35:15;8.57;;;2.17;;
31990;SDS011;18508;49.386;8.370;2023-01-10T14:37:46;9.98;;;2.13;;
31990;SDS011;18508;49.386;8.370;2023-01-10T14:40:22;4.88;;;1.30;;
31990;SDS011;18508;49.386;8.370;2023-01-10T14:42:53;7.80;;;1.58;;
31990;SDS011;18508;49.386;8.370;2023-01-10T14:45:30;8.43;;;2.00;;
31990;SDS011;18508;49.386;8.370;2023-01-10T14:48:21;7.65;;;1.65;;
31990;SDS011;18508;49.386;8.370;2023-01-10T14:50:53;10.80;;;1.95;;
31990;SDS011;18508;49.386;8.370;2023-01-10T14:53:34;9.25;;;2.13;;
31990;SDS011;18508;49.386;8.370;2023-01-10T14:56:02;11.85;;;2.08;;
31990;SDS011;18508;49.386;8.370;2023-01-10T14:58:43;6.20;;;1.92;;
31990;SDS011;18508;49.386;8.370;2023-01-10T15:01:12;5.13;;;1.63;;
31990;SDS011;18508;49.386;8.370;2023-01-10T15:03:48;8.32;;;1.95;;
31990;SDS011;18508;49.386;8.370;2023-01-10T15:06:16;7.88;;;3.17;;
31990;SDS011;18508;49.386;8.370;2023-01-10T15:08:44;11.77;;;2.25;;
31990;SDS011;18508;49.386;8.370;2023-01-10T15:11:12;10.50;;;1.85;;
31990;SDS011;18508;49.386;8.370;2023-01-10T15:13:43;5.93;;;2.15;;
31990;SDS011;18508;49.386;8.370;2023-01-10T15:16:17;6.75;;;2.10;;
31990;SDS011;18508;49.386;8.370;2023-01-10T15:18:50;9.65;;;2.28;;
31990;SDS011;18508;49.386;8.370;2023-01-10T15:21:22;6.28;;;1.77;;
31990;SDS011;18508;49.386;8.370;2023-01-10T15:23:51;11.70;;;1.77;;
31990;SDS011;18508;49.386;8.370;2023-01-10T15:26:19;10.20;;;2.03;;
31990;SDS011;18508;49.386;8.370;2023-01-10T15:31:49;6.80;;;1.90;;
31990;SDS011;18508;49.386;8.370;2023-01-10T15:34:21;8.23;;;1.95;;
31990;SDS011;18508;49.386;8.370;2023-01-10T15:36:54;12.93;;;2.72;;
31990;SDS011;18508;49.386;8.370;2023-01-10T15:39:26;7.57;;;1.73;;
31990;SDS011;18508;49.386;8.370;2023-01-10T15:41:57;6.30;;;1.83;;
31990;SDS011;18508;49.386;8.370;2023-01-10T15:44:36;6.78;;;2.10;;